Time;durP1;ratioP1;P1;durP2;ratioP2;P2;SDS_P1;SDS_P2;PMS_P1;PMS_P2;Temp;Humidity;BMP_temperature;BMP_pressure;BME280_temperature;BME280_humidity;BME280_pressure;Samples;Min_cycle;Max_cycle;Signal;HPM_P1;HPM_P2
2021/06/24 00:00:57;;;;;;;7.13;5.00;;;;;;;;;;5045642;28;20201;-64
2021/06/24 00:03:25;;;;;;;7.43;5.18;;;;;;;;;;5031349;28;20203;-63
2021/06/24 00:05:50;;;;;;;5.30;4.80;;;;;;;;;;5032545;28;20210;-64
2021/06/24 00:08:16;;;;;;;7.35;5.20;;;;;;;;;;5047210;28;20190;-64
2021/06/24 00:10:42;;;;;;;7.60;4.60;;;;;;;;;;5044400;28;20186;-63
2021/06/24 00:13:08;;;;;;;10.57;5.13;;;;;;;;;;5046974;28;20197;-64
2021/06/24 00:15:35;;;;;;;7.18;4.80;;;;;;;;;;5039045;28;20198;-64
2021/06/24 00:18:01;;;;;;;12.02;5.22;;;;;;;;;;5048364;28;20190;-64
2021/06/24 00:20:26;;;;;;;7.53;4.97;;;;;;;;;;5031254;28;20672;-64
2021/06/24 00:22:52;;;;;;;6.80;4.53;;;;;;;;;;5042658;28;20217;-64
2021/06/24 00:25:17;;;;;;;6.45;4.90;;;;;;;;;;5044110;28;20181;-63
2021/06/24 00:27:43;;;;;;;6.57;4.68;;;;;;;;;;5027482;28;20674;-63
2021/06/24 00:30:09;;;;;;;6.88;4.90;;;;;;;;;;5046077;28;20683;-63
2021/06/24 00:32:35;;;;;;;7.65;5.28;;;;;;;;;;5044465;28;20240;-64
2021/06/24 00:35:01;;;;;;;8.00;4.80;;;;;;;;;;5048901;28;20654;-64
2021/06/24 00:37:28;;;;;;;5.72;4.40;;;;;;;;;;5043690;28;20206;-64
2021/06/24 00:39:53;;;;;;;7.47;5.22;;;;;;;;;;5042144;28;20193;-64
2021/06/24 00:42:19;;;;;;;5.85;4.25;;;;;;;;;;5042661;28;20179;-64
2021/06/24 00:44:44;;;;;;;5.13;4.13;;;;;;;;;;5045111;28;20589;-64
2021/06/24 00:47:09;;;;;;;6.78;4.82;;;;;;;;;;5045525;28;20282;-63
2021/06/24 00:49:35;;;;;;;7.75;4.78;;;;;;;;;;5046253;28;20189;-64
2021/06/24 00:52:00;;;;;;;7.72;4.43;;;;;;;;;;5046766;28;20213;-63
2021/06/24 00:54:25;;;;;;;8.18;4.60;;;;;;;;;;5045953;28;20198;-63
2021/06/24 00:56:51;;;;;;;7.90;4.38;;;;;;;;;;5037494;28;20214;-64
2021/06/24 00:59:17;;;;;;;5.95;4.03;;;;;;;;;;5046919;28;20872;-63
2021/06/24 01:01:42;;;;;;;5.93;4.30;;;;;;;;;;5028366;28;20651;-63
2021/06/24 01:04:07;;;;;;;8.60;5.05;;;;;;;;;;5043972;28;20220;-64
2021/06/24 01:06:33;;;;;;;7.43;4.88;;;;;;;;;;5042434;28;20301;-64
2021/06/24 01:08:58;;;;;;;7.10;5.00;;;;;;;;;;5045607;28;20182;-63
2021/06/24 01:11:24;;;;;;;6.80;4.90;;;;;;;;;;5045897;28;20190;-64
2021/06/24 01:13:50;;;;;;;6.47;4.47;;;;;;;;;;5037963;28;20199;-64
2021/06/24 01:16:16;;;;;;;7.35;4.80;;;;;;;;;;5042080;28;20335;-65
2021/06/24 01:18:42;;;;;;;6.50;4.60;;;;;;;;;;5039393;28;20847;-63
2021/06/24 01:21:07;;;;;;;6.50;4.20;;;;;;;;;;5048403;28;20194;-63
2021/06/24 01:23:38;;;;;;;6.90;5.00;;;;;;;;;;5046200;28;20267;-63
2021/06/24 01:26:04;;;;;;;8.60;4.57;;;;;;;;;;5045706;28;20206;-63
2021/06/24 01:28:29;;;;;;;7.93;4.88;;;;;;;;;;5044912;28;20268;-63
2021/06/24 01:30:54;;;;;;;6.93;4.70;;;;;;;;;;5044478;28;20573;-64
2021/06/24 01:33:20;;;;;;;5.53;4.78;;;;;;;;;;5045953;28;20615;-64
2021/06/24 01:35:45;;;;;;;7.93;5.10;;;;;;;;;;5044237;28;20226;-64
2021/06/24 01:38:11;;;;;;;7.32;5.18;;;;;;;;;;5045276;28;20185;-63
2021/06/24 01:40:37;;;;;;;8.07;4.72;;;;;;;;;;5038424;28;20610;-62
2021/06/24 01:43:04;;;;;;;7.75;4.78;;;;;;;;;;5039977;28;20210;-62
2021/06/24 01:45:30;;;;;;;5.05;4.55;;;;;;;;;;5039065;28;20182;-64
2021/06/24 01:47:55;;;;;;;6.82;4.88;;;;;;;;;;5041592;28;20240;-64
2021/06/24 01:50:21;;;;;;;6.57;4.85;;;;;;;;;;5040727;28;20201;-64
2021/06/24 01:52:48;;;;;;;6.00;4.85;;;;;;;;;;5040143;28;20213;-64
2021/06/24 01:55:15;;;;;;;6.75;4.90;;;;;;;;;;5038449;28;20216;-65
2021/06/24 01:57:41;;;;;;;6.30;4.90;;;;;;;;;;5040751;28;20267;-63
2021/06/24 02:00:08;;;;;;;6.28;4.88;;;;;;;;;;5021321;28;20198;-64
2021/06/24 02:02:34;;;;;;;8.50;4.57;;;;;;;;;;5045540;28;20808;-64
2021/06/24 02:04:59;;;;;;;7.00;4.63;;;;;;;;;;5046128;28;20327;-64
2021/06/24 02:07:24;;;;;;;6.20;4.95;;;;;;;;;;5046935;28;20322;-63
2021/06/24 02:09:50;;;;;;;8.32;4.53;;;;;;;;;;5027070;28;20186;-64
2021/06/24 02:12:15;;;;;;;6.70;4.97;;;;;;;;;;5042916;28;20189;-64
2021/06/24 02:14:41;;;;;;;8.38;5.55;;;;;;;;;;5042286;28;21251;-65
2021/06/24 02:17:07;;;;;;;8.20;4.90;;;;;;;;;;5044631;28;20209;-64
2021/06/24 02:19:32;;;;;;;6.43;5.38;;;;;;;;;;5027923;28;20657;-63
2021/06/24 02:21:57;;;;;;;8.75;5.68;;;;;;;;;;5043754;28;20652;-63
2021/06/24 02:24:23;;;;;;;9.95;5.00;;;;;;;;;;5044102;28;20186;-63
2021/06/24 02:26:48;;;;;;;7.45;4.93;;;;;;;;;;5041762;28;20201;-63
2021/06/24 02:29:13;;;;;;;7.00;4.85;;;;;;;;;;5045253;28;20273;-65
2021/06/24 02:31:39;;;;;;;7.45;4.70;;;;;;;;;;5043677;28;20190;-63
2021/06/24 02:34:05;;;;;;;7.50;4.95;;;;;;;;;;5047267;28;20186;-63
2021/06/24 02:36:30;;;;;;;6.38;4.93;;;;;;;;;;5036957;28;20234;-63
2021/06/24 02:38:55;;;;;;;5.95;5.07;;;;;;;;;;5044903;28;20696;-64
2021/06/24 02:41:21;;;;;;;9.50;5.13;;;;;;;;;;5045111;28;20658;-63
2021/06/24 02:43:46;;;;;;;7.18;5.10;;;;;;;;;;5044409;28;20291;-63
2021/06/24 02:46:11;;;;;;;8.32;5.60;;;;;;;;;;5043301;28;20292;-63
2021/06/24 02:48:36;;;;;;;7.05;5.25;;;;;;;;;;5043252;28;20661;-63
2021/06/24 02:51:03;;;;;;;10.00;5.57;;;;;;;;;;5029202;28;20189;-63
2021/06/24 02:53:28;;;;;;;9.02;5.93;;;;;;;;;;5040356;28;20278;-63
2021/06/24 02:55:53;;;;;;;8.30;4.93;;;;;;;;;;5041956;28;20702;-63
2021/06/24 02:58:19;;;;;;;7.13;5.78;;;;;;;;;;5039747;28;20200;-63
2021/06/24 03:00:44;;;;;;;7.30;5.72;;;;;;;;;;5043707;28;20665;-65
2021/06/24 03:03:09;;;;;;;9.20;5.57;;;;;;;;;;5049321;28;20269;-64
2021/06/24 03:05:35;;;;;;;9.68;6.38;;;;;;;;;;5048367;28;20186;-64
2021/06/24 03:08:00;;;;;;;12.05;6.45;;;;;;;;;;5047419;28;20189;-64
2021/06/24 03:10:25;;;;;;;7.22;6.10;;;;;;;;;;5046590;28;20698;-63
2021/06/24 03:12:51;;;;;;;7.57;6.30;;;;;;;;;;5035820;28;20272;-64
2021/06/24 03:15:16;;;;;;;8.98;6.60;;;;;;;;;;5044058;28;20275;-63
2021/06/24 03:17:42;;;;;;;8.75;7.20;;;;;;;;;;5047250;28;20210;-63
2021/06/24 03:20:09;;;;;;;10.18;7.25;;;;;;;;;;5045756;28;20672;-64
2021/06/24 03:22:35;;;;;;;11.98;8.15;;;;;;;;;;5045607;28;20190;-64
2021/06/24 03:25:01;;;;;;;10.48;7.60;;;;;;;;;;5046189;28;20722;-63
2021/06/24 03:27:27;;;;;;;8.63;7.82;;;;;;;;;;5027658;28;20225;-65
2021/06/24 03:29:52;;;;;;;11.27;7.80;;;;;;;;;;5032508;28;20562;-62
2021/06/24 03:32:18;;;;;;;8.68;7.38;;;;;;;;;;5047537;28;20235;-64
2021/06/24 03:34:43;;;;;;;11.32;6.72;;;;;;;;;;5047188;28;20649;-64
2021/06/24 03:37:08;;;;;;;7.22;6.32;;;;;;;;;;5044612;28;20695;-64
2021/06/24 03:39:34;;;;;;;7.90;6.75;;;;;;;;;;5045238;28;20190;-64
2021/06/24 03:41:59;;;;;;;7.82;6.50;;;;;;;;;;5036060;28;20186;-63
2021/06/24 03:44:25;;;;;;;13.27;6.80;;;;;;;;;;5026961;28;20185;-64
2021/06/24 03:46:50;;;;;;;9.48;6.38;;;;;;;;;;5046257;28;20221;-64
2021/06/24 03:49:15;;;;;;;13.25;6.63;;;;;;;;;;5045086;28;20186;-65
2021/06/24 03:51:41;;;;;;;9.80;6.38;;;;;;;;;;5048950;28;20186;-62
2021/06/24 03:54:06;;;;;;;7.40;6.20;;;;;;;;;;5047227;28;20657;-64
2021/06/24 03:56:32;;;;;;;9.60;5.80;;;;;;;;;;5049272;28;20214;-64
2021/06/24 03:58:57;;;;;;;9.02;6.40;;;;;;;;;;5045524;28;20244;-63
2021/06/24 04:01:22;;;;;;;10.35;6.20;;;;;;;;;;5047904;28;20190;-63
2021/06/24 04:03:48;;;;;;;11.23;6.93;;;;;;;;;;5039818;28;20190;-63
2021/06/24 04:06:13;;;;;;;9.10;6.05;;;;;;;;;;5048924;28;20210;-64
2021/06/24 04:08:38;;;;;;;8.40;5.68;;;;;;;;;;5038733;28;20202;-64
2021/06/24 04:11:05;;;;;;;9.35;6.15;;;;;;;;;;5045656;28;20197;-62
2021/06/24 04:13:30;;;;;;;11.52;5.65;;;;;;;;;;5043247;28;20196;-64
2021/06/24 04:15:56;;;;;;;7.78;5.43;;;;;;;;;;5030760;28;20296;-64
2021/06/24 04:18:22;;;;;;;7.15;4.72;;;;;;;;;;5045947;28;20217;-63
2021/06/24 04:20:48;;;;;;;11.77;5.72;;;;;;;;;;5045361;28;20626;-63
2021/06/24 04:23:13;;;;;;;10.57;5.30;;;;;;;;;;5031425;28;20186;-63
2021/06/24 04:25:39;;;;;;;9.35;5.57;;;;;;;;;;5047485;28;20221;-63
2021/06/24 04:28:04;;;;;;;10.38;5.90;;;;;;;;;;5049315;28;20189;-64
2021/06/24 04:30:29;;;;;;;8.13;5.43;;;;;;;;;;5045139;28;20189;-64
2021/06/24 04:32:56;;;;;;;8.07;5.78;;;;;;;;;;5046095;28;20281;-64
2021/06/24 04:35:21;;;;;;;8.73;5.35;;;;;;;;;;5043232;28;20662;-63
2021/06/24 04:37:47;;;;;;;8.40;5.40;;;;;;;;;;5045747;28;20202;-63
2021/06/24 04:40:13;;;;;;;8.02;5.38;;;;;;;;;;5033231;28;20201;-64
2021/06/24 04:42:38;;;;;;;7.30;5.47;;;;;;;;;;5045768;28;20272;-63
2021/06/24 04:45:05;;;;;;;9.13;4.93;;;;;;;;;;5046059;28;20186;-63
2021/06/24 04:47:31;;;;;;;9.48;5.22;;;;;;;;;;5044861;28;20208;-64
2021/06/24 04:49:56;;;;;;;9.68;5.55;;;;;;;;;;5028001;28;20190;-63
2021/06/24 04:52:21;;;;;;;15.35;5.68;;;;;;;;;;5034985;28;20183;-63
2021/06/24 04:54:47;;;;;;;7.28;5.78;;;;;;;;;;5033715;28;20182;-63
2021/06/24 04:57:12;;;;;;;8.32;5.35;;;;;;;;;;5020899;28;20229;-63
2021/06/24 04:59:37;;;;;;;8.15;6.03;;;;;;;;;;5041480;28;20985;-63
2021/06/24 05:02:03;;;;;;;7.85;5.70;;;;;;;;;;5028882;28;20190;-65
2021/06/24 05:04:28;;;;;;;8.35;5.78;;;;;;;;;;5042328;28;20183;-65
2021/06/24 05:06:56;;;;;;;8.32;5.65;;;;;;;;;;5037988;28;20218;-64
2021/06/24 05:09:26;;;;;;;8.98;6.07;;;;;;;;;;5037783;28;20182;-64
2021/06/24 05:11:52;;;;;;;7.03;5.32;;;;;;;;;;5062341;22;20178;-58
2021/06/24 05:14:17;;;;;;;8.95;6.10;;;;;;;;;;5050120;28;20193;-58
2021/06/24 05:16:43;;;;;;;9.32;6.03;;;;;;;;;;5048313;28;20216;-58
2021/06/24 05:19:08;;;;;;;9.02;5.80;;;;;;;;;;5060243;28;20669;-57
2021/06/24 05:21:34;;;;;;;10.85;6.65;;;;;;;;;;5055416;28;20197;-57
2021/06/24 05:23:59;;;;;;;12.73;6.57;;;;;;;;;;5057530;28;20210;-58
2021/06/24 05:26:24;;;;;;;12.43;6.68;;;;;;;;;;5058890;28;20185;-57
2021/06/24 05:28:50;;;;;;;8.50;6.25;;;;;;;;;;5042389;28;20189;-57
2021/06/24 05:31:15;;;;;;;9.15;6.13;;;;;;;;;;5057566;28;20232;-58
2021/06/24 05:33:40;;;;;;;9.75;6.50;;;;;;;;;;5039645;28;20739;-58
2021/06/24 05:36:06;;;;;;;7.60;6.47;;;;;;;;;;5056771;28;20677;-58
2021/06/24 05:38:31;;;;;;;13.45;6.50;;;;;;;;;;5056431;28;20195;-58
2021/06/24 05:40:57;;;;;;;12.15;6.63;;;;;;;;;;5059366;28;20212;-57
2021/06/24 05:43:22;;;;;;;11.40;6.47;;;;;;;;;;5062871;28;20227;-58
2021/06/24 05:45:48;;;;;;;9.13;6.50;;;;;;;;;;5059900;28;20212;-57
2021/06/24 05:48:13;;;;;;;9.43;6.32;;;;;;;;;;5052264;28;20205;-57
2021/06/24 05:50:40;;;;;;;12.55;6.68;;;;;;;;;;5059229;28;20204;-58
2021/06/24 05:53:05;;;;;;;9.05;6.07;;;;;;;;;;5058009;28;20213;-57
2021/06/24 05:55:49;;;;;;;11.35;6.53;;;;;;;;;;5056984;28;20205;-57
2021/06/24 05:58:19;;;;;;;7.25;6.13;;;;;;;;;;5053828;28;20476;-58
2021/06/24 06:00:44;;;;;;;8.45;6.75;;;;;;;;;;5055305;28;20254;-58
2021/06/24 06:03:10;;;;;;;8.10;6.57;;;;;;;;;;5058703;28;20209;-57
2021/06/24 06:05:36;;;;;;;8.40;6.70;;;;;;;;;;5058073;28;20638;-58
2021/06/24 06:08:04;;;;;;;9.70;6.45;;;;;;;;;;5057713;28;20201;-57
2021/06/24 06:10:29;;;;;;;12.05;7.20;;;;;;;;;;5057679;28;20279;-57
2021/06/24 06:12:54;;;;;;;12.07;7.28;;;;;;;;;;5061401;28;20296;-57
2021/06/24 06:15:20;;;;;;;12.05;7.30;;;;;;;;;;5056800;28;20205;-57
2021/06/24 06:17:45;;;;;;;11.43;7.75;;;;;;;;;;5060523;28;20608;-57
2021/06/24 06:20:11;;;;;;;10.95;7.47;;;;;;;;;;5059323;28;20713;-57
2021/06/24 06:22:36;;;;;;;10.02;7.18;;;;;;;;;;5058623;28;20354;-58
2021/06/24 06:25:02;;;;;;;13.35;8.55;;;;;;;;;;5057053;28;20185;-57
2021/06/24 06:27:28;;;;;;;15.30;8.02;;;;;;;;;;5057794;28;20220;-57
2021/06/24 06:29:54;;;;;;;10.68;8.15;;;;;;;;;;5056800;28;20589;-58
2021/06/24 06:32:19;;;;;;;9.45;7.97;;;;;;;;;;5061513;28;20711;-58
2021/06/24 06:34:44;;;;;;;11.73;8.73;;;;;;;;;;5067888;28;20204;-57
2021/06/24 06:37:10;;;;;;;11.95;8.02;;;;;;;;;;5066118;28;20269;-57
2021/06/24 06:39:36;;;;;;;13.50;8.40;;;;;;;;;;5056137;28;20189;-57
2021/06/24 06:42:02;;;;;;;10.95;8.02;;;;;;;;;;5057144;28;20278;-57
2021/06/24 06:44:27;;;;;;;10.25;7.88;;;;;;;;;;5041207;28;20238;-56
2021/06/24 06:46:52;;;;;;;10.82;8.07;;;;;;;;;;5053803;28;20173;-58
2021/06/24 06:49:19;;;;;;;10.75;8.77;;;;;;;;;;5054888;28;20263;-57
2021/06/24 06:51:44;;;;;;;14.63;8.73;;;;;;;;;;5055686;28;20189;-57
2021/06/24 06:54:09;;;;;;;15.52;8.30;;;;;;;;;;5055054;28;20194;-58
2021/06/24 06:56:36;;;;;;;10.65;8.75;;;;;;;;;;5061083;28;20290;-58
2021/06/24 06:59:04;;;;;;;14.05;8.73;;;;;;;;;;5058441;28;20189;-60
2021/06/24 07:01:30;;;;;;;11.57;9.10;;;;;;;;;;5047528;28;20323;-58
2021/06/24 07:03:55;;;;;;;12.00;8.27;;;;;;;;;;5060511;28;20289;-57
2021/06/24 07:06:20;;;;;;;13.95;8.75;;;;;;;;;;5055891;28;20327;-56
2021/06/24 07:08:46;;;;;;;10.57;8.63;;;;;;;;;;5062751;28;20185;-59
2021/06/24 07:11:11;;;;;;;11.57;8.27;;;;;;;;;;5049681;28;20189;-58
2021/06/24 07:13:37;;;;;;;16.80;9.23;;;;;;;;;;5063324;28;20205;-60
2021/06/24 07:16:02;;;;;;;14.20;8.70;;;;;;;;;;5061940;28;20224;-59
2021/06/24 07:18:27;;;;;;;13.23;8.80;;;;;;;;;;5046634;28;20745;-58
2021/06/24 07:20:54;;;;;;;11.15;8.85;;;;;;;;;;5058576;28;20623;-59
2021/06/24 07:23:19;;;;;;;9.45;8.45;;;;;;;;;;5063135;28;20295;-59
2021/06/24 07:25:45;;;;;;;11.55;8.55;;;;;;;;;;5062138;28;20215;-58
2021/06/24 07:28:10;;;;;;;15.63;9.10;;;;;;;;;;5063625;28;20194;-58
2021/06/24 07:30:36;;;;;;;14.20;9.13;;;;;;;;;;5067648;28;20182;-60
2021/06/24 07:33:01;;;;;;;10.38;8.20;;;;;;;;;;5068358;28;20204;-58
2021/06/24 07:35:27;;;;;;;12.18;8.43;;;;;;;;;;5044207;28;20741;-58
2021/06/24 07:37:52;;;;;;;11.25;8.60;;;;;;;;;;5046941;28;20189;-58
2021/06/24 07:40:18;;;;;;;10.20;8.30;;;;;;;;;;5064703;28;20211;-58
2021/06/24 07:42:43;;;;;;;9.57;8.07;;;;;;;;;;5067253;28;20213;-58
2021/06/24 07:45:10;;;;;;;10.93;8.48;;;;;;;;;;5065299;28;20196;-58
2021/06/24 07:47:35;;;;;;;12.90;8.63;;;;;;;;;;5065716;28;20193;-58
2021/06/24 07:50:00;;;;;;;10.20;8.18;;;;;;;;;;5066294;28;20251;-57
2021/06/24 07:52:26;;;;;;;15.63;8.90;;;;;;;;;;5069461;28;20580;-57
2021/06/24 07:54:52;;;;;;;13.32;8.18;;;;;;;;;;5063263;28;20608;-60
2021/06/24 07:57:17;;;;;;;10.38;8.63;;;;;;;;;;5065040;28;20772;-57
2021/06/24 07:59:42;;;;;;;11.18;7.78;;;;;;;;;;5066339;28;20186;-57
2021/06/24 08:02:09;;;;;;;10.00;7.90;;;;;;;;;;5047354;28;20612;-57
2021/06/24 08:04:34;;;;;;;8.90;7.95;;;;;;;;;;5064182;28;20192;-58
2021/06/24 08:07:00;;;;;;;11.20;8.00;;;;;;;;;;5060172;28;20260;-58
2021/06/24 08:09:25;;;;;;;11.45;8.32;;;;;;;;;;5064272;28;20224;-58
2021/06/24 08:11:50;;;;;;;13.23;8.57;;;;;;;;;;5062341;28;20199;-57
2021/06/24 08:14:16;;;;;;;11.20;8.10;;;;;;;;;;5073326;28;20196;-58
2021/06/24 08:16:41;;;;;;;10.43;8.07;;;;;;;;;;5047519;28;20303;-59
2021/06/24 08:19:06;;;;;;;11.18;8.05;;;;;;;;;;5045414;28;20200;-57
2021/06/24 08:21:32;;;;;;;9.88;7.13;;;;;;;;;;5042577;28;20200;-58
2021/06/24 08:23:58;;;;;;;12.40;8.10;;;;;;;;;;5059456;28;20683;-57
2021/06/24 08:26:24;;;;;;;10.40;7.00;;;;;;;;;;5065471;28;20285;-56
2021/06/24 08:28:49;;;;;;;12.35;6.22;;;;;;;;;;5061502;28;20193;-57
2021/06/24 08:31:14;;;;;;;12.05;6.85;;;;;;;;;;5062218;28;20353;-57
2021/06/24 08:33:40;;;;;;;9.77;6.75;;;;;;;;;;5056276;28;20213;-59
2021/06/24 08:36:06;;;;;;;15.50;6.75;;;;;;;;;;5058294;28;20241;-59
2021/06/24 08:38:31;;;;;;;8.27;6.70;;;;;;;;;;5065379;28;20216;-58
2021/06/24 08:40:56;;;;;;;11.32;6.20;;;;;;;;;;5064972;28;20722;-57
2021/06/24 08:43:22;;;;;;;7.75;6.35;;;;;;;;;;5063716;28;20228;-58
2021/06/24 08:45:47;;;;;;;7.38;6.15;;;;;;;;;;5047757;28;20841;-58
2021/06/24 08:48:16;;;;;;;11.57;6.57;;;;;;;;;;5064933;28;20192;-58
2021/06/24 08:50:48;;;;;;;10.40;5.95;;;;;;;;;;5059389;28;20185;-57
2021/06/24 08:53:18;;;;;;;10.30;5.97;;;;;;;;;;5045230;28;20201;-58
2021/06/24 08:55:46;;;;;;;7.50;4.95;;;;;;;;;;5065964;28;20205;-57
2021/06/24 08:58:12;;;;;;;8.05;5.18;;;;;;;;;;5068804;28;20306;-58
2021/06/24 09:00:37;;;;;;;5.80;5.00;;;;;;;;;;5056752;28;20622;-59
2021/06/24 09:03:19;;;;;;;6.90;5.20;;;;;;;;;;5065439;28;20219;-59
2021/06/24 09:05:47;;;;;;;7.70;4.68;;;;;;;;;;5050116;28;20188;-58
2021/06/24 09:08:22;;;;;;;8.48;5.13;;;;;;;;;;5048583;28;20193;-58
2021/06/24 09:11:06;;;;;;;5.55;3.90;;;;;;;;;;5064563;28;20188;-58
2021/06/24 09:13:31;;;;;;;5.25;4.15;;;;;;;;;;5048648;28;20211;-58
2021/06/24 09:16:03;;;;;;;7.20;4.07;;;;;;;;;;5052945;28;20209;-58
2021/06/24 09:18:28;;;;;;;5.82;4.03;;;;;;;;;;5044059;28;20189;-60
2021/06/24 09:20:53;;;;;;;6.35;3.83;;;;;;;;;;5062107;28;20189;-58
2021/06/24 09:23:23;;;;;;;6.93;3.70;;;;;;;;;;5051059;28;20693;-58
2021/06/24 09:26:06;;;;;;;7.55;4.22;;;;;;;;;;5067075;28;20268;-59
2021/06/24 09:28:58;;;;;;;5.72;3.63;;;;;;;;;;5067635;28;20185;-58
2021/06/24 09:31:28;;;;;;;6.00;3.90;;;;;;;;;;5043898;28;21854;-59
2021/06/24 09:33:56;;;;;;;6.40;4.22;;;;;;;;;;5058845;28;20539;-59
2021/06/24 09:36:37;;;;;;;7.18;4.85;;;;;;;;;;5045867;28;20217;-60
2021/06/24 09:39:07;;;;;;;8.45;3.80;;;;;;;;;;5042946;28;20185;-60
2021/06/24 09:41:33;;;;;;;7.07;4.35;;;;;;;;;;5058601;28;20180;-60
2021/06/24 09:43:58;;;;;;;4.97;4.00;;;;;;;;;;5061306;28;20612;-60
2021/06/24 09:46:26;;;;;;;7.30;4.13;;;;;;;;;;5060820;28;20216;-59
2021/06/24 09:48:59;;;;;;;5.40;4.55;;;;;;;;;;5039806;28;20189;-59
2021/06/24 09:51:29;;;;;;;8.57;4.10;;;;;;;;;;5058956;28;20193;-59
2021/06/24 09:54:13;;;;;;;7.00;4.00;;;;;;;;;;5064028;28;20724;-59
2021/06/24 09:56:46;;;;;;;4.45;3.72;;;;;;;;;;5064258;28;20228;-60
2021/06/24 09:59:14;;;;;;;4.95;4.45;;;;;;;;;;5064586;28;20554;-58
2021/06/24 10:01:42;;;;;;;5.13;4.30;;;;;;;;;;5066467;28;20278;-60
2021/06/24 10:04:20;;;;;;;6.97;4.03;;;;;;;;;;5049541;28;20177;-60
2021/06/24 10:06:46;;;;;;;7.15;4.07;;;;;;;;;;5065065;28;20184;-59
2021/06/24 10:09:12;;;;;;;6.03;3.53;;;;;;;;;;5073344;28;20189;-59
2021/06/24 10:11:38;;;;;;;5.10;3.20;;;;;;;;;;5063919;28;20185;-59
2021/06/24 10:14:05;;;;;;;3.72;3.15;;;;;;;;;;5064407;28;20224;-59
2021/06/24 10:16:31;;;;;;;5.47;3.20;;;;;;;;;;5065308;28;20213;-59
2021/06/24 10:18:59;;;;;;;5.38;3.05;;;;;;;;;;5064871;28;20181;-58
2021/06/24 10:21:31;;;;;;;4.82;2.90;;;;;;;;;;5066682;28;20185;-59
2021/06/24 10:24:01;;;;;;;6.47;3.25;;;;;;;;;;5066465;28;20224;-61
2021/06/24 10:26:29;;;;;;;4.32;3.13;;;;;;;;;;5041561;28;20184;-57
2021/06/24 10:29:08;;;;;;;5.68;3.10;;;;;;;;;;5046776;28;20190;-59
2021/06/24 10:31:38;;;;;;;5.18;3.00;;;;;;;;;;5059791;28;20219;-60
2021/06/24 10:34:04;;;;;;;3.60;3.13;;;;;;;;;;5039764;28;20565;-60
2021/06/24 10:36:32;;;;;;;4.32;3.05;;;;;;;;;;5060960;28;20209;-60
2021/06/24 10:38:58;;;;;;;6.60;3.05;;;;;;;;;;5059615;28;20193;-60
2021/06/24 10:41:24;;;;;;;5.43;2.95;;;;;;;;;;5063672;28;20672;-57
2021/06/24 10:43:52;;;;;;;4.93;3.20;;;;;;;;;;5061467;28;21306;-60
2021/06/24 10:46:21;;;;;;;7.43;3.10;;;;;;;;;;5066116;28;20548;-59
2021/06/24 10:48:46;;;;;;;2.80;2.42;;;;;;;;;;5063398;28;20242;-62
2021/06/24 10:51:14;;;;;;;4.45;3.00;;;;;;;;;;5063912;28;20597;-57
2021/06/24 10:53:42;;;;;;;5.05;3.10;;;;;;;;;;5060943;28;20205;-59
2021/06/24 10:56:21;;;;;;;7.15;4.32;;;;;;;;;;5062437;28;20194;-58
2021/06/24 10:58:46;;;;;;;6.35;3.92;;;;;;;;;;5063680;28;20197;-59
2021/06/24 11:01:12;;;;;;;6.05;4.70;;;;;;;;;;5065659;28;20268;-61
2021/06/24 11:03:41;;;;;;;9.43;5.10;;;;;;;;;;5063375;28;20228;-59
2021/06/24 11:06:10;;;;;;;6.57;4.70;;;;;;;;;;5063541;28;20183;-58
2021/06/24 11:08:36;;;;;;;7.78;4.65;;;;;;;;;;5064177;28;20581;-60
2021/06/24 11:11:10;;;;;;;7.65;4.45;;;;;;;;;;5061875;28;20679;-59
2021/06/24 11:13:46;;;;;;;6.38;4.50;;;;;;;;;;5059897;28;20701;-60
2021/06/24 11:16:15;;;;;;;6.65;4.60;;;;;;;;;;5065667;28;20205;-60
2021/06/24 11:18:40;;;;;;;6.53;4.45;;;;;;;;;;5063282;28;20188;-58
2021/06/24 11:21:07;;;;;;;10.00;4.28;;;;;;;;;;5067057;28;20189;-58
2021/06/24 11:23:35;;;;;;;5.40;3.60;;;;;;;;;;5068199;28;20197;-59
2021/06/24 11:26:12;;;;;;;5.80;4.00;;;;;;;;;;5063806;28;20277;-57
2021/06/24 11:28:46;;;;;;;7.07;4.70;;;;;;;;;;5060886;28;20624;-57
2021/06/24 11:31:12;;;;;;;7.88;5.15;;;;;;;;;;5065532;28;20247;-59
2021/06/24 11:33:47;;;;;;;6.60;4.97;;;;;;;;;;5066160;28;20826;-59
2021/06/24 11:36:17;;;;;;;7.55;4.38;;;;;;;;;;5068926;28;20289;-57
2021/06/24 11:38:47;;;;;;;10.65;4.53;;;;;;;;;;5067272;28;20209;-59
2021/06/24 11:41:12;;;;;;;6.38;4.10;;;;;;;;;;5065056;28;20177;-60
2021/06/24 11:43:39;;;;;;;5.95;4.50;;;;;;;;;;5067942;28;20292;-60
2021/06/24 11:46:05;;;;;;;5.15;3.92;;;;;;;;;;5065985;28;20603;-59
2021/06/24 11:48:30;;;;;;;7.43;4.75;;;;;;;;;;5066998;28;20204;-59
2021/06/24 12:04:57;;;;;;;7.95;4.20;;;;;;;;;;5030795;28;20220;-57
2021/06/24 12:07:22;;;;;;;6.90;5.00;;;;;;;;;;5063349;28;20183;-60
2021/06/24 12:09:50;;;;;;;6.75;4.55;;;;;;;;;;5062864;28;20582;-58
2021/06/24 12:12:20;;;;;;;7.30;4.80;;;;;;;;;;5056775;28;20257;-59
2021/06/24 12:14:47;;;;;;;5.25;4.20;;;;;;;;;;5056958;28;20199;-59
2021/06/24 12:17:24;;;;;;;5.07;4.05;;;;;;;;;;5065824;28;20207;-60
2021/06/24 12:20:09;;;;;;;5.70;4.80;;;;;;;;;;5054898;28;20865;-60
2021/06/24 12:22:35;;;;;;;7.07;4.60;;;;;;;;;;5051763;28;20347;-58
2021/06/24 12:25:06;;;;;;;7.45;4.80;;;;;;;;;;5061044;28;20287;-59
2021/06/24 12:27:34;;;;;;;5.72;3.95;;;;;;;;;;5064923;28;20199;-58
2021/06/24 12:30:08;;;;;;;8.35;4.78;;;;;;;;;;5064788;28;20200;-59
2021/06/24 12:32:35;;;;;;;8.45;4.78;;;;;;;;;;5055995;28;20205;-59
2021/06/24 12:35:00;;;;;;;5.63;4.53;;;;;;;;;;5049207;28;20199;-59
2021/06/24 12:37:27;;;;;;;7.80;4.85;;;;;;;;;;5068084;28;20185;-58
2021/06/24 12:39:53;;;;;;;6.18;5.03;;;;;;;;;;5067421;28;20189;-58
2021/06/24 12:42:19;;;;;;;6.05;4.57;;;;;;;;;;5067317;28;20212;-58
2021/06/24 12:44:44;;;;;;;6.25;4.32;;;;;;;;;;5068076;28;20189;-58
2021/06/24 12:47:09;;;;;;;4.82;3.13;;;;;;;;;;5064637;28;20194;-58
2021/06/24 12:49:35;;;;;;;3.38;2.92;;;;;;;;;;5065282;28;20193;-58
2021/06/24 12:52:01;;;;;;;5.90;3.58;;;;;;;;;;5062875;28;20220;-58
2021/06/24 12:54:26;;;;;;;4.25;3.08;;;;;;;;;;5062960;28;20207;-57
2021/06/24 12:56:52;;;;;;;5.80;3.53;;;;;;;;;;5060099;28;20624;-58
2021/06/24 12:59:22;;;;;;;4.05;3.30;;;;;;;;;;5048745;28;20181;-58
2021/06/24 13:01:50;;;;;;;4.95;3.35;;;;;;;;;;5063282;28;20998;-58
2021/06/24 13:04:21;;;;;;;4.80;3.30;;;;;;;;;;5063814;28;20198;-58
2021/06/24 13:06:52;;;;;;;3.60;3.15;;;;;;;;;;5065205;28;20178;-57
2021/06/24 13:09:41;;;;;;;4.50;3.60;;;;;;;;;;5052370;28;20170;-57
2021/06/24 13:12:08;;;;;;;5.43;4.07;;;;;;;;;;5064900;28;20213;-58
2021/06/24 13:14:44;;;;;;;8.90;4.43;;;;;;;;;;5066372;28;20189;-58
2021/06/24 13:17:13;;;;;;;5.45;4.03;;;;;;;;;;5065237;28;20215;-58
2021/06/24 13:19:50;;;;;;;6.93;3.60;;;;;;;;;;5063620;28;20210;-58
2021/06/24 13:22:18;;;;;;;9.15;4.90;;;;;;;;;;5067869;28;20259;-58
2021/06/24 13:24:56;;;;;;;4.38;3.63;;;;;;;;;;5064332;28;20185;-58
2021/06/24 13:27:27;;;;;;;5.97;4.13;;;;;;;;;;5066996;28;20258;-58
2021/06/24 13:30:02;;;;;;;5.72;4.53;;;;;;;;;;5062835;28;20246;-58
2021/06/24 13:32:28;;;;;;;3.75;2.72;;;;;;;;;;5065968;28;20687;-58
2021/06/24 13:34:54;;;;;;;3.92;2.55;;;;;;;;;;5065939;28;20200;-57
2021/06/24 13:37:19;;;;;;;3.05;2.35;;;;;;;;;;5067226;28;20578;-58
2021/06/24 13:39:47;;;;;;;4.93;2.90;;;;;;;;;;5067365;28;20264;-58
2021/06/24 13:42:12;;;;;;;4.18;2.83;;;;;;;;;;5065333;28;20204;-58
2021/06/24 13:44:38;;;;;;;4.93;3.17;;;;;;;;;;5053015;28;20573;-58
2021/06/24 13:47:03;;;;;;;4.07;3.30;;;;;;;;;;5054188;28;20207;-58
2021/06/24 13:49:29;;;;;;;5.32;3.35;;;;;;;;;;5063601;28;20369;-58
2021/06/24 13:51:55;;;;;;;3.92;3.20;;;;;;;;;;5047818;28;20239;-57
2021/06/24 13:54:26;;;;;;;3.15;2.70;;;;;;;;;;5064038;28;20589;-58
2021/06/24 13:56:54;;;;;;;5.40;3.30;;;;;;;;;;5064982;28;20225;-58
2021/06/24 13:59:20;;;;;;;3.38;3.05;;;;;;;;;;5049699;28;20284;-58
2021/06/24 14:01:46;;;;;;;4.40;3.40;;;;;;;;;;5059440;28;20724;-61
2021/06/24 14:04:13;;;;;;;4.80;3.22;;;;;;;;;;5060166;28;20205;-58
2021/06/24 14:06:38;;;;;;;4.47;2.90;;;;;;;;;;5062237;28;20184;-58
2021/06/24 14:09:14;;;;;;;4.35;3.40;;;;;;;;;;5058015;28;20292;-59
2021/06/24 14:11:42;;;;;;;4.57;3.92;;;;;;;;;;5060252;28;20823;-57
2021/06/24 14:14:08;;;;;;;3.47;3.17;;;;;;;;;;5060795;28;20272;-57
2021/06/24 14:16:35;;;;;;;5.47;3.00;;;;;;;;;;5044448;28;20288;-57
2021/06/24 14:19:02;;;;;;;4.07;3.13;;;;;;;;;;5058398;28;20209;-58
2021/06/24 14:21:28;;;;;;;4.40;3.20;;;;;;;;;;5061878;28;20235;-59
2021/06/24 14:23:54;;;;;;;4.97;3.47;;;;;;;;;;5035199;28;20233;-59
2021/06/24 14:26:25;;;;;;;5.65;3.53;;;;;;;;;;5036868;28;20192;-59
2021/06/24 14:28:52;;;;;;;4.63;3.15;;;;;;;;;;5058637;28;20212;-59
2021/06/24 14:31:17;;;;;;;4.75;3.65;;;;;;;;;;5033854;28;20190;-59
2021/06/24 14:33:44;;;;;;;5.00;3.53;;;;;;;;;;5053750;28;20209;-59
2021/06/24 14:36:10;;;;;;;7.82;3.70;;;;;;;;;;5046729;28;20304;-59
2021/06/24 14:38:37;;;;;;;4.80;3.60;;;;;;;;;;5061847;28;20264;-61
2021/06/24 14:41:02;;;;;;;5.05;3.55;;;;;;;;;;5058296;28;20189;-57
2021/06/24 14:43:27;;;;;;;5.47;3.67;;;;;;;;;;5059472;28;20217;-58
2021/06/24 14:45:54;;;;;;;4.93;3.60;;;;;;;;;;5052381;28;20174;-60
2021/06/24 14:48:21;;;;;;;4.53;3.40;;;;;;;;;;5061772;28;20189;-59
2021/06/24 14:50:46;;;;;;;7.20;3.75;;;;;;;;;;5058036;28;20235;-60
2021/06/24 14:53:12;;;;;;;4.88;3.72;;;;;;;;;;5056475;28;20205;-59